createdAt,value
2018-09-04T00:01:02.032Z,63.54
2018-09-04T00:03:30.707Z,64.43
2018-09-04T00:06:00.089Z,64.13
2018-09-04T00:08:28.699Z,64.47
2018-09-04T00:10:57.337Z,64.47
2018-09-04T00:13:26.397Z,64.52
2018-09-04T00:15:55.134Z,65.00
2018-09-04T00:18:26.206Z,64.95
2018-09-04T00:20:55.458Z,64.60
2018-09-04T00:23:24.025Z,65.24
2018-09-04T00:25:52.772Z,65.66
2018-09-04T00:28:21.392Z,65.93
2018-09-04T00:30:50.071Z,66.09
2018-09-04T00:33:18.736Z,65.34
2018-09-04T00:35:47.492Z,66.58
2018-09-04T00:38:16.232Z,66.20
2018-09-04T00:40:45.539Z,66.53
2018-09-04T00:43:14.406Z,66.52
2018-09-04T00:45:43.575Z,66.04
2018-09-04T00:48:12.320Z,66.44
2018-09-04T00:50:41.826Z,67.31
2018-09-04T00:53:10.728Z,67.06
2018-09-04T00:55:39.343Z,67.44
2018-09-04T00:58:08.035Z,67.22
2018-09-04T01:00:37.938Z,67.88
2018-09-04T01:03:08.436Z,67.59
2018-09-04T01:05:37.243Z,67.67
2018-09-04T01:08:06.007Z,67.96
2018-09-04T01:10:34.918Z,67.47
2018-09-04T01:13:04.800Z,68.33
2018-09-04T01:15:34.320Z,68.50
2018-09-04T01:18:04.507Z,68.50
2018-09-04T01:20:33.938Z,68.92
2018-09-04T01:23:02.600Z,68.29
2018-09-04T01:25:32.878Z,68.55
2018-09-04T01:28:03.056Z,68.46
2018-09-04T01:30:32.410Z,69.42
2018-09-04T01:33:01.859Z,69.03
2018-09-04T01:35:32.173Z,69.59
2018-09-04T01:38:02.267Z,68.99
2018-09-04T01:40:32.913Z,69.17
2018-09-04T01:43:01.627Z,69.19
2018-09-04T01:45:31.584Z,69.97
2018-09-04T01:48:00.482Z,69.93
2018-09-04T01:50:29.298Z,69.37
2018-09-04T01:52:58.726Z,69.88
2018-09-04T01:55:28.372Z,69.59
2018-09-04T01:57:58.443Z,70.20
2018-09-04T02:00:31.407Z,70.48
2018-09-04T02:03:00.495Z,70.59
2018-09-04T02:05:29.408Z,70.05
2018-09-04T02:07:59.708Z,70.27
2018-09-04T02:10:31.136Z,70.04
2018-09-04T02:13:00.348Z,70.41
2018-09-04T02:15:30.960Z,70.47
2018-09-04T02:18:00.830Z,70.58
2018-09-04T02:20:30.163Z,71.19
2018-09-04T02:22:59.403Z,70.69
2018-09-04T02:25:29.104Z,70.89
2018-09-04T02:27:58.413Z,70.70
2018-09-04T02:30:27.762Z,70.86
2018-09-04T02:32:57.917Z,71.16
2018-09-04T02:35:26.912Z,71.47
2018-09-04T02:37:55.820Z,71.11
2018-09-04T02:40:24.712Z,71.30
2018-09-04T02:42:53.579Z,71.14
2018-09-04T02:45:22.205Z,71.05
2018-09-04T02:47:51.305Z,71.18
2018-09-04T02:50:19.952Z,71.39
2018-09-04T02:52:50.266Z,71.70
2018-09-04T02:55:20.231Z,71.50
2018-09-04T02:57:49.035Z,72.02
2018-09-04T03:00:17.803Z,71.87
2018-09-04T03:02:46.900Z,72.08
2018-09-04T03:05:17.583Z,71.63
2018-09-04T03:07:46.345Z,71.99
2018-09-04T03:10:16.217Z,72.04
2018-09-04T03:12:45.414Z,72.19
2018-09-04T03:15:14.168Z,71.77
2018-09-04T03:17:43.107Z,72.36
2018-09-04T03:20:11.984Z,72.05
2018-09-04T03:22:40.565Z,71.84
2018-09-04T03:25:09.991Z,71.92
2018-09-04T03:27:39.862Z,72.02
2018-09-04T03:30:08.875Z,71.71
2018-09-04T03:32:38.743Z,72.32
2018-09-04T03:35:08.298Z,72.13
2018-09-04T03:37:37.021Z,72.38
2018-09-04T03:40:07.029Z,72.30
2018-09-04T03:42:35.739Z,72.41
2018-09-04T03:45:04.904Z,72.82
2018-09-04T03:47:34.415Z,72.49
2018-09-04T03:50:04.533Z,72.68
2018-09-04T03:52:34.724Z,73.53
2018-09-04T03:55:04.364Z,72.91
2018-09-04T03:57:33.366Z,72.82
2018-09-04T04:00:02.671Z,72.92
2018-09-04T04:02:32.356Z,72.88
2018-09-04T04:05:01.748Z,73.41
2018-09-04T04:07:30.614Z,73.78
2018-09-04T04:10:01.195Z,73.42
2018-09-04T04:12:31.139Z,73.38
2018-09-04T04:14:59.965Z,73.38
2018-09-04T04:17:30.684Z,73.46
2018-09-04T04:19:59.507Z,73.58
2018-09-04T04:22:28.018Z,74.15
2018-09-04T04:24:58.525Z,73.43
2018-09-04T04:27:27.588Z,73.31
2018-09-04T04:29:56.472Z,74.07
2018-09-04T04:32:26.612Z,73.66
2018-09-04T04:34:55.468Z,73.55
2018-09-04T04:37:25.155Z,73.36
2018-09-04T04:39:54.498Z,73.67
2018-09-04T04:42:23.886Z,73.41
2018-09-04T04:44:53.386Z,73.83
2018-09-04T04:47:27.945Z,73.59
2018-09-04T04:49:58.809Z,73.59
2018-09-04T04:52:28.900Z,74.28
2018-09-04T04:54:57.940Z,74.22
2018-09-04T04:57:26.629Z,74.26
2018-09-04T04:59:55.735Z,74.38
2018-09-04T05:02:24.892Z,74.14
2018-09-04T05:04:55.046Z,74.75
2018-09-04T05:07:23.699Z,74.50
2018-09-04T05:09:52.575Z,74.21
2018-09-04T05:12:22.381Z,73.96
2018-09-04T05:14:57.041Z,74.50
2018-09-04T05:17:26.033Z,73.98
2018-09-04T05:19:54.945Z,74.75
2018-09-04T05:22:23.777Z,74.02
2018-09-04T05:24:53.943Z,74.01
2018-09-04T05:27:23.563Z,74.52
2018-09-04T05:29:52.805Z,74.34
2018-09-04T05:32:30.227Z,74.52
2018-09-04T05:35:00.327Z,74.18
2018-09-04T05:37:29.537Z,74.39
2018-09-04T05:39:58.312Z,74.40
2018-09-04T05:42:33.528Z,74.86
2018-09-04T05:45:03.819Z,75.18
2018-09-04T05:47:36.162Z,74.60
2018-09-04T05:50:06.508Z,74.88
2018-09-04T05:52:36.914Z,74.06
2018-09-04T05:55:06.282Z,74.30
2018-09-04T05:57:35.268Z,74.12
2018-09-04T06:00:08.736Z,74.14
2018-09-04T06:02:38.280Z,74.38
2018-09-04T06:05:07.087Z,74.51
2018-09-04T06:07:36.297Z,74.35
2018-09-04T06:10:05.407Z,74.16
2018-09-04T06:12:34.383Z,74.45
2018-09-04T06:15:03.614Z,74.52
2018-09-04T06:17:33.320Z,74.53
2018-09-04T06:20:03.604Z,74.12
2018-09-04T06:22:32.338Z,74.23
2018-09-04T06:25:00.852Z,74.54
2018-09-04T06:27:29.565Z,74.73
2018-09-04T06:29:59.193Z,74.61
2018-09-04T06:32:29.040Z,74.42
2018-09-04T06:35:00.505Z,73.79
2018-09-04T06:37:29.880Z,74.57
2018-09-04T06:39:59.039Z,73.54
2018-09-04T06:42:28.455Z,73.87
2018-09-04T06:44:58.820Z,73.51
2018-09-04T06:47:28.578Z,73.45
2018-09-04T06:49:57.989Z,73.50
2018-09-04T06:52:28.287Z,73.28
2018-09-04T06:54:57.569Z,73.36
2018-09-04T06:57:27.207Z,73.89
2018-09-04T06:59:55.959Z,73.74
2018-09-04T07:02:25.320Z,73.04
2018-09-04T07:04:53.968Z,73.23
2018-09-04T07:07:25.110Z,72.96
2018-09-04T07:09:55.146Z,73.08
2018-09-04T07:12:24.071Z,73.52
2018-09-04T07:14:53.294Z,73.78
2018-09-04T07:17:22.151Z,73.22
2018-09-04T07:19:52.136Z,73.52
2018-09-04T07:22:20.811Z,73.19
2018-09-04T07:24:50.134Z,72.57
2018-09-04T07:27:18.972Z,72.15
2018-09-04T07:29:48.579Z,72.49
2018-09-04T07:32:17.791Z,72.40
2018-09-04T07:34:46.673Z,72.42
2018-09-04T07:37:16.059Z,71.82
2018-09-04T07:39:46.971Z,71.93
2018-09-04T07:42:17.266Z,71.16
2018-09-04T07:44:46.023Z,71.04
2018-09-04T07:47:15.156Z,70.98
2018-09-04T07:49:44.428Z,70.89
2018-09-04T07:52:13.553Z,71.25
2018-09-04T07:54:43.504Z,70.55
2018-09-04T07:57:12.942Z,71.21
2018-09-04T07:59:41.948Z,71.68
2018-09-04T08:02:11.571Z,70.92
2018-09-04T08:04:41.036Z,71.54
2018-09-04T08:07:11.996Z,70.57
2018-09-04T08:09:42.718Z,71.42
2018-09-04T08:12:14.092Z,70.86
2018-09-04T08:14:44.971Z,70.25
2018-09-04T08:17:15.677Z,70.66
2018-09-04T08:19:44.535Z,70.37
2018-09-04T08:22:13.633Z,70.25
2018-09-04T08:24:42.134Z,70.55
2018-09-04T08:27:11.584Z,69.94
2018-09-04T08:29:41.134Z,69.71
2018-09-04T08:32:09.728Z,69.39
2018-09-04T08:34:38.434Z,67.99
2018-09-04T08:37:07.779Z,68.01
2018-09-04T08:39:37.761Z,68.63
2018-09-04T08:42:07.033Z,67.53
2018-09-04T08:44:35.957Z,68.61
2018-09-04T08:47:04.623Z,67.40
2018-09-04T08:49:33.438Z,67.59
2018-09-04T08:52:02.736Z,66.96
2018-09-04T08:54:31.805Z,66.29
2018-09-04T08:57:00.932Z,66.91
2018-09-04T08:59:34.479Z,67.25
2018-09-04T09:02:03.317Z,66.30
2018-09-04T09:04:33.159Z,65.88
2018-09-04T09:07:04.537Z,66.29
2018-09-04T09:09:33.817Z,66.01
2018-09-04T09:12:02.834Z,66.12
2018-09-04T09:14:32.057Z,65.71
2018-09-04T09:17:01.782Z,64.16
2018-09-04T09:19:30.564Z,65.21
2018-09-04T09:21:59.656Z,65.00
2018-09-04T09:24:29.733Z,64.73
2018-09-04T09:26:59.756Z,64.36
2018-09-04T09:29:28.352Z,64.33
2018-09-04T09:31:57.045Z,64.58
2018-09-04T09:34:26.526Z,63.42
2018-09-04T09:36:56.873Z,63.64
2018-09-04T09:39:26.517Z,61.63
2018-09-04T09:41:55.157Z,62.27
2018-09-04T09:44:24.142Z,62.29
2018-09-04T09:46:56.920Z,62.58
2018-09-04T09:49:26.126Z,62.32
2018-09-04T09:51:55.861Z,61.78
2018-09-04T09:54:24.776Z,62.70
2018-09-04T09:56:53.947Z,62.24
2018-09-04T09:59:22.833Z,61.55
2018-09-04T10:01:53.447Z,61.18
2018-09-04T10:04:23.684Z,61.08
2018-09-04T10:06:53.067Z,62.10
2018-09-04T10:09:23.189Z,60.98
2018-09-04T10:11:53.738Z,60.80
2018-09-04T10:14:22.480Z,60.27
2018-09-04T10:16:53.121Z,60.74
2018-09-04T10:19:22.154Z,60.38
2018-09-04T10:21:50.835Z,60.27
2018-09-04T10:24:20.045Z,59.51
2018-09-04T10:26:49.866Z,59.51
2018-09-04T10:29:19.180Z,59.90
2018-09-04T10:31:47.864Z,59.98
2018-09-04T10:34:17.115Z,59.97
2018-09-04T10:36:48.320Z,60.01
2018-09-04T10:39:22.611Z,60.13
2018-09-04T10:41:51.361Z,60.11
2018-09-04T10:44:20.472Z,59.01
2018-09-04T10:46:50.555Z,58.78
2018-09-04T10:49:20.211Z,59.37
2018-09-04T10:51:52.266Z,57.52
2018-09-04T10:54:23.117Z,57.98
2018-09-04T10:56:51.774Z,56.93
2018-09-04T10:59:21.217Z,56.15
2018-09-04T11:01:49.759Z,56.21
2018-09-04T11:04:20.123Z,56.47
2018-09-04T11:06:48.688Z,56.16
2018-09-04T11:09:17.634Z,56.03
2018-09-04T11:11:47.377Z,55.48
2018-09-04T11:14:17.235Z,56.24
2018-09-04T11:16:46.222Z,55.95
2018-09-04T11:19:17.585Z,55.11
2018-09-04T11:21:46.158Z,56.69
2018-09-04T11:24:15.066Z,54.81
2018-09-04T11:26:44.520Z,55.05
2018-09-04T11:29:13.855Z,54.28
2018-09-04T11:31:43.155Z,54.16
2018-09-04T11:34:12.628Z,53.21
2018-09-04T11:36:42.620Z,52.49
2018-09-04T11:39:11.681Z,53.43
2018-09-04T11:41:40.400Z,53.92
2018-09-04T11:44:08.909Z,53.79
2018-09-04T11:46:37.698Z,53.30
2018-09-04T11:49:07.377Z,51.57
2018-09-04T11:51:36.028Z,52.38
2018-09-04T11:54:06.004Z,52.58
2018-09-04T11:56:40.338Z,52.92
2018-09-04T11:59:10.232Z,52.03
2018-09-04T12:01:42.913Z,50.92
2018-09-04T12:04:11.578Z,51.96
2018-09-04T12:06:40.206Z,49.44
2018-09-04T12:09:09.320Z,49.73
2018-09-04T12:11:38.591Z,50.87
2018-09-04T12:14:07.149Z,51.57
2018-09-04T12:16:36.050Z,50.14
2018-09-04T12:19:05.592Z,50.36
2018-09-04T12:21:34.263Z,50.49
2018-09-04T12:24:03.338Z,49.54
2018-09-04T12:26:32.440Z,48.67
2018-09-04T12:29:01.959Z,48.72
2018-09-04T12:31:31.143Z,49.57
2018-09-04T12:34:00.347Z,49.25
2018-09-04T12:36:29.535Z,49.21
2018-09-04T12:38:58.140Z,48.44
2018-09-04T12:41:27.439Z,48.20
2018-09-04T12:43:56.553Z,48.71
2018-09-04T12:46:30.676Z,48.33
2018-09-04T12:49:01.580Z,47.73
2018-09-04T12:51:30.166Z,48.98
2018-09-04T12:54:00.559Z,48.64
2018-09-04T12:56:30.773Z,47.74
2018-09-04T12:59:00.204Z,46.79
2018-09-04T13:01:28.911Z,45.85
2018-09-04T13:03:58.616Z,45.64
2018-09-04T13:06:27.224Z,45.53
2018-09-04T13:08:56.444Z,45.47
2018-09-04T13:11:25.941Z,45.40
2018-09-04T13:13:55.112Z,46.24
2018-09-04T13:16:23.672Z,45.77
2018-09-04T13:18:53.317Z,45.16
2018-09-04T13:21:22.083Z,45.10
2018-09-04T13:23:52.037Z,44.65
2018-09-04T13:26:20.792Z,43.96
2018-09-04T13:28:49.907Z,44.19
2018-09-04T13:31:18.848Z,43.36
2018-09-04T13:33:48.473Z,44.27
2018-09-04T13:36:18.472Z,44.85
2018-09-04T13:38:48.328Z,44.48
2018-09-04T13:41:17.193Z,44.04
2018-09-04T13:43:45.785Z,43.33
2018-09-04T13:46:14.948Z,43.71
2018-09-04T13:48:44.770Z,41.99
2018-09-04T13:51:14.054Z,40.48
2018-09-04T13:53:43.206Z,41.66
2018-09-04T13:56:12.032Z,41.91
2018-09-04T13:58:42.679Z,42.07
2018-09-04T14:01:12.527Z,42.54
2018-09-04T14:03:41.031Z,41.42
2018-09-04T14:06:10.427Z,41.84
2018-09-04T14:08:39.066Z,41.00
2018-09-04T14:11:08.739Z,41.21
2018-09-04T14:13:38.278Z,40.44
2018-09-04T14:16:09.243Z,40.31
2018-09-04T14:18:38.111Z,39.98
2018-09-04T14:21:07.870Z,39.83
2018-09-04T14:23:36.509Z,40.78
2018-09-04T14:26:05.929Z,40.49
2018-09-04T14:28:41.760Z,39.82
2018-09-04T14:31:04.627Z,39.80
2018-09-04T14:33:33.927Z,40.24
2018-09-04T14:36:03.419Z,39.99
2018-09-04T14:38:32.037Z,40.29
2018-09-04T14:41:00.656Z,40.43
2018-09-04T14:43:29.792Z,40.31
2018-09-04T14:45:58.976Z,40.95
2018-09-04T14:48:27.993Z,41.12
2018-09-04T14:50:57.951Z,41.22
2018-09-04T14:53:27.877Z,41.63
2018-09-04T14:55:56.919Z,40.47
2018-09-04T14:58:26.233Z,42.08
2018-09-04T15:00:57.343Z,40.31
2018-09-04T15:03:26.709Z,40.27
2018-09-04T15:05:55.403Z,40.35
2018-09-04T15:08:24.721Z,40.61
2018-09-04T15:10:53.727Z,41.06
2018-09-04T15:13:22.607Z,40.88
2018-09-04T15:15:51.351Z,40.61
2018-09-04T15:18:20.433Z,39.87
2018-09-04T15:20:49.153Z,39.91
2018-09-04T15:23:17.835Z,40.04
2018-09-04T15:25:47.593Z,40.59
2018-09-04T15:28:16.459Z,41.45
2018-09-04T15:30:45.767Z,42.27
2018-09-04T15:33:16.641Z,41.49
2018-09-04T15:35:46.332Z,40.75
2018-09-04T15:38:15.116Z,41.39
2018-09-04T15:40:44.265Z,41.18
2018-09-04T15:43:12.873Z,41.50
2018-09-04T15:45:42.531Z,40.17
2018-09-04T15:48:11.736Z,40.53
2018-09-04T15:50:40.302Z,39.77
2018-09-04T15:53:10.153Z,41.41
2018-09-04T15:55:42.823Z,41.60
2018-09-04T15:58:12.320Z,41.88
2018-09-04T16:00:40.942Z,41.18
2018-09-04T16:03:10.378Z,40.57
2018-09-04T16:05:39.784Z,40.88
2018-09-04T16:08:16.263Z,41.74
2018-09-04T16:10:45.367Z,42.42
2018-09-04T16:13:15.760Z,41.88
2018-09-04T16:15:44.967Z,40.89
2018-09-04T16:18:13.886Z,41.43
2018-09-04T16:20:42.801Z,41.83
2018-09-04T16:23:11.732Z,42.88
2018-09-04T16:25:41.444Z,42.25
2018-09-04T16:28:10.703Z,42.99
2018-09-04T16:30:40.997Z,43.69
2018-09-04T16:33:09.860Z,43.54
2018-09-04T16:35:40.049Z,44.10
2018-09-04T16:38:09.331Z,43.39
2018-09-04T16:41:33.802Z,44.66
2018-09-04T16:44:03.071Z,45.42
2018-09-04T16:46:45.333Z,43.86
2018-09-04T16:49:14.248Z,45.01
2018-09-04T16:51:44.879Z,45.55
2018-09-04T16:54:15.895Z,45.65
2018-09-04T16:56:46.958Z,45.37
2018-09-04T16:59:15.825Z,46.47
2018-09-04T17:01:46.620Z,46.10
2018-09-04T17:04:18.073Z,46.94
2018-09-04T17:06:47.231Z,47.17
2018-09-04T17:09:17.403Z,46.12
2018-09-04T17:11:47.839Z,46.51
2018-09-04T17:14:17.390Z,47.76
2018-09-04T17:16:47.043Z,47.91
2018-09-04T17:19:17.166Z,47.85
2018-09-04T17:21:45.721Z,48.42
2018-09-04T17:24:15.366Z,48.63
2018-09-04T17:26:45.027Z,48.23
2018-09-04T17:29:13.639Z,48.84
2018-09-04T17:31:42.827Z,48.82
2018-09-04T17:34:12.227Z,49.31
2018-09-04T17:36:40.912Z,49.86
2018-09-04T17:39:11.745Z,49.25
2018-09-04T17:41:40.375Z,49.32
2018-09-04T17:44:09.124Z,49.97
2018-09-04T17:46:37.829Z,51.02
2018-09-04T17:49:07.406Z,49.77
2018-09-04T17:51:36.033Z,50.36
2018-09-04T17:54:05.318Z,50.08
2018-09-04T17:56:35.225Z,50.39
2018-09-04T17:59:05.215Z,51.49
2018-09-04T18:01:35.123Z,52.01
2018-09-04T18:04:04.135Z,51.60
2018-09-04T18:06:32.822Z,50.76
2018-09-04T18:09:02.634Z,51.44
2018-09-04T18:11:31.281Z,51.63
2018-09-04T18:14:00.082Z,51.16
2018-09-04T18:16:28.902Z,50.92
2018-09-04T18:18:57.608Z,51.61
2018-09-04T18:21:27.126Z,51.73
2018-09-04T18:23:55.946Z,51.26
2018-09-04T18:26:25.550Z,50.83
2018-09-04T18:28:55.076Z,51.95
2018-09-04T18:31:24.464Z,51.15
2018-09-04T18:33:53.057Z,52.16
2018-09-04T18:36:21.728Z,52.25
2018-09-04T18:38:50.309Z,51.97
2018-09-04T18:41:19.128Z,52.21
2018-09-04T18:43:47.988Z,51.92
2018-09-04T18:46:16.672Z,51.51
2018-09-04T18:48:45.702Z,51.30
2018-09-04T18:51:14.615Z,52.52
2018-09-04T18:53:43.622Z,51.69
2018-09-04T18:56:14.440Z,52.71
2018-09-04T18:58:44.234Z,52.26
2018-09-04T19:01:13.455Z,52.07
2018-09-04T19:03:43.488Z,52.59
2018-09-04T19:06:12.929Z,52.94
2018-09-04T19:08:41.686Z,52.54
2018-09-04T19:11:11.262Z,53.01
2018-09-04T19:13:40.482Z,52.53
2018-09-04T19:16:09.244Z,52.70
2018-09-04T19:18:37.927Z,52.97
2018-09-04T19:21:06.628Z,52.27
2018-09-04T19:23:36.336Z,52.96
2018-09-04T19:26:06.334Z,53.33
2018-09-04T19:28:36.105Z,53.58
2018-09-04T19:31:04.685Z,53.41
2018-09-04T19:33:33.825Z,53.48
2018-09-04T19:36:02.740Z,52.99
2018-09-04T19:38:31.804Z,53.49
2018-09-04T19:41:02.787Z,53.23
2018-09-04T19:43:32.735Z,54.01
2018-09-04T19:46:02.847Z,53.94
2018-09-04T19:48:32.664Z,54.36
2018-09-04T19:51:02.889Z,54.09
2018-09-04T19:53:31.510Z,53.48
2018-09-04T19:56:00.210Z,53.80
2018-09-04T19:58:28.883Z,52.89
2018-09-04T20:00:57.578Z,52.16
2018-09-04T20:03:26.813Z,53.34
2018-09-04T20:05:55.511Z,52.84
2018-09-04T20:08:24.548Z,53.20
2018-09-04T20:10:53.517Z,52.60
2018-09-04T20:13:24.833Z,52.39
2018-09-04T20:15:54.263Z,52.50
2018-09-04T20:18:24.262Z,52.19
2018-09-04T20:20:53.749Z,53.16
2018-09-04T20:23:23.405Z,51.81
2018-09-04T20:25:52.380Z,53.19
2018-09-04T20:28:21.247Z,52.43
2018-09-04T20:30:50.409Z,52.76
2018-09-04T20:33:19.920Z,52.66
2018-09-04T20:35:49.001Z,52.02
2018-09-04T20:38:18.176Z,52.42
2018-09-04T20:40:47.805Z,52.45
2018-09-04T20:43:17.027Z,51.56
2018-09-04T20:45:46.768Z,51.81
2018-09-04T20:48:16.313Z,52.37
2018-09-04T20:50:45.067Z,51.97
2018-09-04T20:53:15.188Z,52.02
2018-09-04T20:55:44.184Z,52.65
2018-09-04T20:58:23.976Z,52.49
2018-09-04T21:01:05.501Z,52.58
2018-09-04T21:03:45.304Z,52.52
2018-09-04T21:06:25.301Z,52.52
2018-09-04T21:09:02.459Z,52.85
2018-09-04T21:11:32.319Z,53.16
2018-09-04T21:14:03.893Z,52.53
2018-09-04T21:16:34.146Z,52.70
2018-09-04T21:19:03.478Z,53.08
2018-09-04T21:21:32.444Z,53.53
2018-09-04T21:24:02.426Z,52.46
2018-09-04T21:26:31.316Z,52.75
2018-09-04T21:29:38.580Z,53.44
2018-09-04T21:32:07.920Z,53.50
2018-09-04T21:34:37.315Z,53.31
2018-09-04T21:37:06.229Z,53.46
2018-09-04T21:39:35.643Z,53.68
2018-09-04T21:42:05.379Z,53.21
2018-09-04T21:44:34.418Z,52.88
2018-09-04T21:47:03.779Z,54.61
2018-09-04T21:49:32.395Z,54.00
2018-09-04T21:52:02.268Z,53.78
2018-09-04T21:54:31.495Z,54.00
2018-09-04T21:57:01.484Z,53.56
2018-09-04T21:59:30.734Z,53.38
2018-09-04T22:02:00.569Z,54.58
2018-09-04T22:04:29.924Z,54.60
2018-09-04T22:06:58.865Z,54.30
2018-09-04T22:09:27.778Z,53.88
2018-09-04T22:11:56.558Z,54.66
2018-09-04T22:14:25.525Z,54.29
2018-09-04T22:16:54.197Z,53.84
2018-09-04T22:19:23.572Z,54.95
2018-09-04T22:21:52.631Z,54.49
2018-09-04T22:24:22.160Z,54.47
2018-09-04T22:26:50.899Z,54.76
2018-09-04T22:29:19.595Z,55.08
2018-09-04T22:31:48.236Z,55.45
2018-09-04T22:34:16.749Z,54.86
2018-09-04T22:36:45.464Z,54.10
2018-09-04T22:39:14.188Z,55.07
2018-09-04T22:41:42.895Z,54.78
2018-09-04T22:44:12.346Z,55.04
2018-09-04T22:46:41.134Z,55.00
2018-09-04T22:49:09.861Z,55.46
2018-09-04T22:51:38.762Z,54.56
2018-09-04T22:54:08.476Z,54.87
2018-09-04T22:56:38.209Z,54.84
2018-09-04T22:59:07.127Z,56.00
2018-09-04T23:01:35.830Z,54.97
2018-09-04T23:04:05.173Z,54.85
2018-09-04T23:06:33.771Z,55.31
2018-09-04T23:09:02.996Z,56.29
2018-09-04T23:11:31.658Z,55.89
2018-09-04T23:14:00.279Z,56.18
2018-09-04T23:16:28.964Z,55.94
2018-09-04T23:18:57.539Z,56.58
2018-09-04T23:21:28.566Z,56.27
2018-09-04T23:23:57.497Z,56.17
2018-09-04T23:26:26.269Z,57.34
2018-09-04T23:28:54.958Z,56.11
2018-09-04T23:31:24.121Z,56.27
2018-09-04T23:35:22.007Z,56.29
2018-09-04T23:37:50.860Z,56.91
2018-09-04T23:40:19.828Z,57.04
2018-09-04T23:42:48.681Z,57.47
2018-09-04T23:45:17.745Z,57.12
2018-09-04T23:47:47.132Z,56.41
2018-09-04T23:50:15.958Z,57.36
2018-09-04T23:52:44.623Z,57.26
2018-09-04T23:55:13.329Z,57.30
2018-09-04T23:57:41.879Z,56.92
